Latest Weather Observations for Tewantin

IDQ60801

Issued at 8:05 pm EST Tuesday 21 October 2014 (issued every 30 minutes, with the page automatically refreshed every 10 minutes)

About weather observations | Map of weather stations | Latest weather observations for QLD | Other Formats
Station Details ID: 040908 Name: TEWANTIN RSL PARK Lat: -26.39 Lon: 153.04 Height: 6.4 m
Data from the previous 72 hours. | See also: Recent months at Tewantin
Date/Time
EST
Temp
°C
App
Temp
°C
Dew
Point
Rel
Hum
%
Delta-T
°C
Wind Press
QNH
hPa
Press
MSL
hPa
Rain
since 9 am
mm
Dir
 
Spd
km/h
Gust
km/h
Spd
kts
Gust
kts
21/08:00pm 20.3 18.8 16.3 78 2.4 SSE 19 33 10 18 1026.2 1026.2 1.0
21/07:30pm 19.6 18.9 16.4 82 1.9 SE 15 30 8 16 1026.0 1026.0 1.0
21/07:00pm 20.7 19.5 16.1 75 2.7 SE 17 26 9 14 1025.9 1025.9 0.6
21/06:30pm 20.7 19.3 16.5 77 2.5 ESE 19 30 10 16 1025.6 1025.6 0.6
21/06:00pm 20.4 19.6 17.0 81 2.1 SE 17 28 9 15 1025.3 1025.3 0.6
21/05:30pm 20.0 20.3 17.8 87 1.4 SSE 13 22 7 12 1025.1 1025.1 0.6
21/05:00pm 21.6 20.2 16.6 73 3.0 SSE 19 35 10 19 1024.6 1024.6 0.0
21/04:30pm 21.4 19.9 16.4 73 3.0 ESE 19 32 10 17 1024.5 1024.5 0.0
21/04:00pm 21.3 19.1 16.9 76 2.7 ESE 24 35 13 19 1024.3 1024.3 0.0
21/03:30pm 22.6 20.9 17.3 72 3.3 SE 22 44 12 24 1023.9 1023.9 0.0
21/03:00pm 23.4 21.9 16.4 64 4.3 SSE 19 35 10 19 1023.9 1023.9 0.0
21/02:30pm 22.8 22.0 17.0 70 3.6 SSE 17 30 9 16 1024.1 1024.1 0.0
21/02:00pm 22.0 22.1 18.4 80 2.2 SE 15 24 8 13 1024.5 1024.5 0.0
21/01:30pm 20.0 19.5 17.8 87 1.4 SE 17 35 9 19 1024.9 1024.9 0.0
21/01:00pm 20.7 20.5 17.5 82 2.0 SE 15 26 8 14 1025.1 1025.1 0.0
21/12:30pm 21.9 21.4 16.8 73 3.1 SSE 15 24 8 13 1025.3 1025.3 0.0
21/12:00pm 22.2 21.5 16.5 70 3.4 SSE 15 26 8 14 1025.6 1025.6 0.0
21/11:30am 21.8 21.3 17.0 74 2.9 S 15 26 8 14 1026.1 1026.1 0.0
21/11:00am 21.5 20.3 16.0 71 3.3 S 17 28 9 15 1026.3 1026.3 0.0
21/10:30am 22.3 22.1 16.6 70 3.5 SSE 13 24 7 13 1026.5 1026.5 0.0
21/10:00am 22.2 21.5 16.5 70 3.4 SSE 15 26 8 14 1026.5 1026.5 0.0
21/09:30am 22.6 21.6 15.7 65 4.1 SE 15 28 8 15 1026.6 1026.6 0.0
21/09:00am 23.0 22.8 15.6 63 4.4 SE 11 20 6 11 1026.6 1026.6 0.0
21/08:30am 22.1 21.3 15.0 64 4.2 S 13 17 7 9 1026.6 1026.6 0.0
21/08:00am 21.5 20.4 14.4 64 4.1 SE 13 26 7 14 1026.5 1026.5 0.0
21/07:30am 21.4 19.9 14.1 63 4.2 ESE 15 20 8 11 1026.2 1026.2 0.0
21/07:00am 21.9 20.8 14.3 62 4.4 SE 13 22 7 12 1025.8 1025.8 0.0
21/06:30am 21.7 20.7 13.3 59 4.8 SE 11 20 6 11 1025.4 1025.4 0.0
21/06:00am 21.1 20.6 13.8 63 4.2 ESE 9 17 5 9 1025.3 1025.3 0.0
21/05:30am 20.3 19.7 13.5 65 3.9 ESE 9 13 5 7 1025.1 1025.1 0.0
21/05:00am 19.9 19.0 13.6 67 3.6 ESE 11 17 6 9 1024.6 1024.6 0.0
21/04:30am 19.9 19.0 13.6 67 3.6 ESE 11 17 6 9 1024.5 1024.5 0.0
21/04:00am 20.2 18.6 12.9 63 4.1 ESE 13 22 7 12 1024.2 1024.2 0.0
21/03:30am 20.1 18.4 12.6 62 4.2 ESE 13 17 7 9 1024.5 1024.5 0.0
21/03:00am 20.2 18.3 11.9 59 4.6 ESE 13 20 7 11 1024.6 1024.6 0.0
21/02:30am 20.4 18.6 12.1 59 4.6 ESE 13 22 7 12 1024.8 1024.8 0.0
21/02:00am 20.5 18.3 12.2 59 4.6 ESE 15 24 8 13 1024.8 1024.8 0.0
21/01:30am 20.7 18.7 12.7 60 4.5 ESE 15 22 8 12 1025.1 1025.1 0.0
21/01:00am 20.7 19.3 13.4 63 4.2 ESE 13 17 7 9 1025.5 1025.5 0.0
21/12:30am 20.7 18.9 13.2 62 4.3 ESE 15 22 8 12 1025.8 1025.8 0.0
21/12:00am 20.8 18.9 13.0 61 4.4 ESE 15 24 8 13 1026.1 1026.1 0.0
 
Date/Time
EST
Temp
°C
App
Temp
°C
Dew
Point
Rel
Hum
%
Delta-T
°C
Wind Press
QNH
hPa
Press
MSL
hPa
Rain
since 9 am
mm
Dir
 
Spd
km/h
Gust
km/h
Spd
kts
Gust
kts
20/11:30pm 20.8 19.0 13.3 62 4.3 ESE 15 26 8 14 1026.2 1026.2 0.0
20/11:00pm 20.8 19.1 13.5 63 4.2 ESE 15 24 8 13 1026.3 1026.3 0.0
20/10:30pm 20.8 18.8 14.0 65 3.9 ESE 17 24 9 13 1026.4 1026.4 0.0
20/10:00pm 20.8 19.6 14.0 65 3.9 ESE 13 19 7 10 1026.3 1026.3 0.0
20/09:30pm 20.6 20.4 14.7 69 3.5 ESE 9 17 5 9 1026.1 1026.1 0.0
20/09:00pm 20.1 20.0 14.0 68 3.5 SE 7 11 4 6 1025.8 1025.8 0.0
20/08:30pm 20.0 19.9 13.9 68 3.5 SE 7 11 4 6 1025.5 1025.5 0.0
20/08:00pm 19.8 20.0 14.2 70 3.2 E 6 11 3 6 1025.0 1025.0 0.0
20/07:30pm 20.0 20.1 14.4 70 3.3 SE 7 9 4 5 1024.7 1024.7 0.0
20/07:00pm 20.3 20.3 14.2 68 3.5 SE 7 11 4 6 1024.1 1024.1 0.0
20/06:30pm 20.2 20.1 13.9 67 3.6 E 7 9 4 5 1023.6 1023.6 0.0
20/06:00pm 20.7 20.1 13.6 64 4.1 E 9 11 5 6 1023.2 1023.2 0.0
20/05:30pm 21.3 20.3 13.5 61 4.5 ESE 11 17 6 9 1022.9 1022.9 0.0
20/05:00pm 21.8 20.9 13.7 60 4.7 E 11 15 6 8 1022.6 1022.6 0.0
20/04:30pm 22.1 20.3 12.1 53 5.6 E 13 17 7 9 1022.4 1022.4 0.0
20/04:00pm 22.3 20.6 12.5 53 5.5 E 13 19 7 10 1022.3 1022.3 0.0
20/03:30pm 22.9 21.7 13.9 57 5.3 NE 13 20 7 11 1022.1 1022.1 0.0
20/03:00pm 23.6 22.4 14.0 55 5.6 NE 13 19 7 10 1022.1 1022.1 0.0
20/02:30pm 23.6 22.4 14.0 55 5.6 ENE 13 24 7 13 1022.2 1022.2 0.0
20/02:00pm 23.7 22.3 13.3 52 6.0 NE 13 20 7 11 1022.4 1022.4 0.0
20/01:30pm 23.5 22.2 13.7 54 5.7 NE 13 22 7 12 1022.7 1022.7 0.0
20/01:00pm 23.4 22.0 12.1 49 6.4 NE 11 20 6 11 1022.9 1022.9 0.0
20/12:30pm 23.0 21.4 12.9 53 5.8 NE 13 22 7 12 1023.3 1023.3 0.0
20/12:00pm 23.8 22.8 13.4 52 6.0 ENE 11 20 6 11 1023.8 1023.8 0.0
20/11:30am 22.9 21.1 12.2 51 6.1 ENE 13 19 7 10 1024.3 1024.3 0.0
20/11:00am 23.3 22.3 13.5 54 5.7 NE 11 20 6 11 1024.6 1024.6 0.0
20/10:30am 22.8 21.5 12.4 52 5.9 SE 11 17 6 9 1025.0 1025.0 0.0
20/10:00am 22.6 21.5 12.0 51 5.9 E 9 17 5 9 1025.5 1025.5 0.0
20/09:30am 22.5 21.4 11.9 51 6.0 E 9 17 5 9 1025.6 1025.6 0.0
20/09:00am 23.1 21.7 12.1 50 6.2 E 11 20 6 11 1025.9 1025.9 0.0
20/08:30am 21.7 21.0 12.0 54 5.4 ESE 7 15 4 8 1025.8 1025.8 0.0
20/08:00am 21.5 20.8 12.1 55 5.3 SE 7 13 4 7 1025.6 1025.6 0.0
20/07:30am 20.9 20.5 13.1 61 4.4 S 7 11 4 6 1025.5 1025.5 0.0
20/07:00am 19.5 18.8 13.2 67 3.6 S 9 13 5 7 1025.3 1025.3 0.0
20/06:30am 18.1 17.8 13.2 73 2.8 S 7 11 4 6 1025.2 1025.2 0.0
20/06:00am 16.5 16.2 12.8 79 2.0 SSW 6 9 3 5 1024.9 1024.9 0.0
20/05:30am 15.4 15.3 13.2 87 1.2 SSW 6 7 3 4 1024.4 1024.4 0.0
20/05:00am 15.1 15.4 12.2 83 1.6 SSW 2 7 1 4 1024.3 1024.3 0.0
20/04:30am 15.6 15.6 12.4 81 1.8 SSW 4 7 2 4 1024.2 1024.2 0.0
20/04:00am 15.8 16.2 12.4 80 1.9 SSW 2 9 1 5 1024.1 1024.1 0.0
20/03:30am 16.0 16.4 12.6 80 1.9 SSW 2 7 1 4 1023.9 1023.9 0.0
20/03:00am 16.6 17.4 12.6 77 2.2 CALM 0 0 0 0 1024.0 1024.0 0.0
20/02:30am 17.1 17.4 12.2 73 2.7 SSW 2 7 1 4 1024.2 1024.2 0.0
20/02:00am 17.6 17.2 12.5 72 2.8 SSW 6 7 3 4 1024.3 1024.3 0.0
20/01:30am 18.3 18.3 12.5 69 3.2 S 4 6 2 3 1024.5 1024.5 0.0
20/01:00am 19.0 18.5 12.0 64 3.9 SE 6 9 3 5 1024.8 1024.8 0.0
20/12:30am 19.6 18.9 12.1 62 4.2 ESE 7 13 4 7 1025.2 1025.2 0.0
20/12:00am 19.8 19.3 12.6 63 4.0 E 7 11 4 6 1025.5 1025.5 0.0
 
Date/Time
EST
Temp
°C
App
Temp
°C
Dew
Point
Rel
Hum
%
Delta-T
°C
Wind Press
QNH
hPa
Press
MSL
hPa
Rain
since 9 am
mm
Dir
 
Spd
km/h
Gust
km/h
Spd
kts
Gust
kts
19/11:30pm 20.0 18.6 12.3 61 4.3 E 11 17 6 9 1025.8 1025.8 0.0
19/11:00pm 20.1 18.7 12.1 60 4.4 E 11 19 6 10 1026.0 1026.0 0.0
19/10:30pm 20.3 18.6 12.3 60 4.5 E 13 20 7 11 1026.2 1026.2 0.0
19/10:00pm 20.4 18.6 12.1 59 4.6 E 13 19 7 10 1026.3 1026.3 0.0
19/09:30pm 20.4 18.7 12.4 60 4.5 E 13 20 7 11 1026.1 1026.1 0.0
19/09:00pm 20.6 19.0 12.8 61 4.4 E 13 20 7 11 1026.1 1026.1 0.0
19/08:30pm 20.7 19.1 12.7 60 4.5 E 13 20 7 11 1026.0 1026.0 0.0
19/08:00pm 20.7 19.3 13.4 63 4.2 ESE 13 20 7 11 1025.8 1025.8 0.0
19/07:30pm 20.7 19.3 13.4 63 4.2 ESE 13 20 7 11 1025.5 1025.5 0.0
19/07:00pm 20.9 19.6 13.6 63 4.2 ESE 13 17 7 9 1025.4 1025.4 0.0
19/06:30pm 20.9 20.0 13.8 64 4.1 ESE 11 20 6 11 1024.9 1024.9 0.0
19/06:00pm 20.8 20.1 13.3 62 4.3 SE 9 15 5 8 1024.6 1024.6 0.0
19/05:30pm 21.1 19.1 12.8 59 4.7 ESE 15 28 8 15 1024.2 1024.2 0.0
19/05:00pm 21.4 19.3 13.6 61 4.5 ESE 17 26 9 14 1023.9 1023.9 0.0
19/04:30pm 21.5 19.3 13.4 60 4.7 ESE 17 24 9 13 1023.7 1023.7 0.0
19/04:00pm 21.7 19.4 13.1 58 4.9 SE 17 28 9 15 1023.7 1023.7 0.0
19/03:30pm 22.0 19.8 13.4 58 5.0 SE 17 28 9 15 1023.6 1023.6 0.0
19/03:00pm 22.2 19.8 12.7 55 5.4 ESE 17 30 9 16 1023.7 1023.7 0.0
19/02:30pm 22.3 19.2 12.3 53 5.7 ESE 20 32 11 17 1023.9 1023.9 0.0
19/02:00pm 22.6 19.4 12.0 51 6.0 SE 20 35 11 19 1024.2 1024.2 0.0
19/01:30pm 22.8 20.1 11.8 50 6.2 SE 17 26 9 14 1024.6 1024.6 0.0
19/01:00pm 23.0 20.3 12.9 53 5.8 ESE 19 32 10 17 1025.0 1025.0 0.0
19/12:30pm 22.7 19.7 12.6 53 5.8 ESE 20 32 11 17 1025.3 1025.3 0.0
19/12:00pm 23.0 20.8 13.2 54 5.6 ESE 17 28 9 15 1025.6 1025.6 0.0
19/11:30am 23.1 20.4 13.0 53 5.8 ESE 19 30 10 16 1026.0 1026.0 0.0
19/11:00am 22.5 19.2 11.6 50 6.1 ESE 20 33 11 18 1026.4 1026.4 0.0
19/10:30am 22.6 20.1 13.4 56 5.3 ESE 19 28 10 15 1026.6 1026.6 0.0
19/10:00am 22.9 21.2 13.7 56 5.3 SE 15 30 8 16 1026.9 1026.9 0.0
19/09:30am 21.1 21.5 16.3 74 2.9 SSE 9 15 5 8 1027.3 1027.3 0.0
19/09:00am 20.7 20.1 15.7 73 3.0 S 13 19 7 10 1027.5 1027.5 2.4
19/08:30am 19.9 19.7 15.7 77 2.5 SSE 11 20 6 11 1027.4 1027.4 2.4
19/08:00am 19.7 20.2 16.5 82 1.9 S 9 15 5 8 1027.3 1027.3 2.4
19/07:30am 18.5 19.7 16.8 90 1.0 SSW 6 9 3 5 1027.1 1027.1 2.4
19/07:00am 17.5 17.6 16.5 94 0.6 S 11 19 6 10 1027.2 1027.2 2.4
19/06:30am 17.2 17.6 16.2 94 0.6 S 9 15 5 8 1026.7 1026.7 2.2
19/06:00am 17.2 17.6 16.4 95 0.5 S 9 13 5 7 1026.3 1026.3 2.0
19/05:30am 17.2 17.6 16.2 94 0.6 S 9 13 5 7 1025.9 1025.9 2.0
19/05:00am 17.4 17.4 16.3 93 0.6 S 11 15 6 8 1025.5 1025.5 2.0
19/04:30am 17.7 18.3 16.7 94 0.6 SSW 9 13 5 7 1025.1 1025.1 2.0
19/04:00am 17.5 18.1 16.9 96 0.4 SSW 9 13 5 7 1025.0 1025.0 2.0
19/03:30am 17.3 16.6 16.3 94 0.6 S 15 24 8 13 1025.0 1025.0 1.6
19/03:00am 17.6 18.1 16.6 94 0.6 SSW 9 13 5 7 1024.6 1024.6 1.6
19/02:30am 17.8 18.7 16.7 93 0.7 S 7 13 4 7 1024.7 1024.7 1.6
19/02:00am 17.8 18.9 17.2 96 0.4 SSW 7 11 4 6 1024.8 1024.8 1.6
19/01:30am 17.8 19.1 17.2 96 0.4 SSW 6 11 3 6 1024.8 1024.8 1.4
19/01:00am 18.2 18.6 16.4 89 1.1 S 9 13 5 7 1025.2 1025.2 0.2
19/12:30am 18.1 18.6 16.6 91 0.9 S 9 13 5 7 1025.6 1025.6 0.2
19/12:00am 17.9 19.0 16.6 92 0.8 SSW 6 13 3 7 1025.8 1025.8 0.2
 
Date/Time
EST
Temp
°C
App
Temp
°C
Dew
Point
Rel
Hum
%
Delta-T
°C
Wind Press
QNH
hPa
Press
MSL
hPa
Rain
since 9 am
mm
Dir
 
Spd
km/h
Gust
km/h
Spd
kts
Gust
kts
18/11:30pm 18.1 19.3 16.8 92 0.8 SSW 6 7 3 4 1026.1 1026.1 0.2
18/11:00pm 17.7 17.4 16.4 92 0.8 ESE 13 19 7 10 1026.4 1026.4 0.2
18/10:30pm 19.0 18.3 15.5 80 2.1 S 13 22 7 12 1026.5 1026.5 0.2
18/10:00pm 19.1 18.7 15.2 78 2.3 S 11 17 6 9 1026.4 1026.4 0.2
18/09:30pm 19.6 17.8 14.4 72 3.0 SSE 17 26 9 14 1026.6 1026.6 0.2
18/09:00pm 20.2 19.7 15.8 76 2.6 SSE 13 24 7 13 1026.4 1026.4 0.2
18/08:30pm 20.2 19.0 16.0 77 2.5 S 17 28 9 15 1026.2 1026.2 0.2

Other Formats:

Comma delimited format used in spreadsheet applications
http://www.bom.gov.au/fwo/IDQ60801/IDQ60801.94570.axf

JavaScript Object Notation format (JSON) in row-major order
http://www.bom.gov.au/fwo/IDQ60801/IDQ60801.94570.json